Time;durP1;ratioP1;P1;durP2;ratioP2;P2;SDS_P1;SDS_P2;PMS_P1;PMS_P2;Temp;Humidity;BMP_temperature;BMP_pressure;BME280_temperature;BME280_humidity;BME280_pressure;Samples;Min_cycle;Max_cycle;Signal;HPM_P1;HPM_P2
2023/05/29 00:02:13;;;;;;;0.10;0.10;;;11.90;99.90;;;;;;5002590;28;20049;-65
2023/05/29 00:04:40;;;;;;;5.07;3.78;;;11.80;99.90;;;;;;4995524;28;20042;-65
2023/05/29 00:07:05;;;;;;;0.00;0.00;;;11.80;99.90;;;;;;5003391;28;20049;-65
2023/05/29 00:09:31;;;;;;;0.70;0.63;;;11.80;99.90;;;;;;5010988;28;20042;-65
2023/05/29 00:11:57;;;;;;;0.65;0.65;;;11.80;99.90;;;;;;5007084;28;20497;-65
2023/05/29 00:14:23;;;;;;;0.55;0.55;;;11.80;99.90;;;;;;5007476;28;20405;-65
2023/05/29 00:16:50;;;;;;;0.25;0.25;;;11.70;99.90;;;;;;5043703;28;20056;-65
2023/05/29 00:19:23;;;;;;;0.00;0.00;;;11.70;99.90;;;;;;5011578;28;20049;-65
2023/05/29 00:21:49;;;;;;;0.17;0.17;;;11.70;99.90;;;;;;5004755;28;20077;-65
2023/05/29 00:24:15;;;;;;;1.10;1.00;;;11.70;99.90;;;;;;5006405;28;20123;-65
2023/05/29 00:26:41;;;;;;;0.80;0.80;;;11.80;99.90;;;;;;5009128;28;20038;-65
2023/05/29 00:29:07;;;;;;;0.20;0.20;;;11.70;99.90;;;;;;5003255;28;20050;-65
2023/05/29 00:31:32;;;;;;;0.13;0.13;;;11.60;99.90;;;;;;5011062;28;20046;-65
2023/05/29 00:33:58;;;;;;;2.05;0.77;;;11.60;99.90;;;;;;5010274;28;20046;-65
2023/05/29 00:36:25;;;;;;;1.85;1.30;;;11.60;99.90;;;;;;5004714;28;20088;-64
2023/05/29 00:38:50;;;;;;;0.00;0.00;;;11.60;99.90;;;;;;5004039;28;20045;-65
2023/05/29 00:41:16;;;;;;;4.15;0.82;;;11.60;99.90;;;;;;5007075;28;20046;-65
2023/05/29 00:43:43;;;;;;;0.38;0.38;;;11.60;99.90;;;;;;5002567;28;20042;-64
2023/05/29 00:46:11;;;;;;;1.27;0.43;;;11.60;99.90;;;;;;5004840;28;20050;-65
2023/05/29 00:48:37;;;;;;;8.15;0.47;;;11.50;99.90;;;;;;5012197;28;20528;-65
2023/05/29 00:51:02;;;;;;;0.00;0.00;;;11.60;99.90;;;;;;5003560;28;20133;-65
2023/05/29 00:53:28;;;;;;;0.20;0.20;;;11.50;99.90;;;;;;5006470;28;20085;-65
2023/05/29 00:55:54;;;;;;;0.28;0.28;;;11.50;99.90;;;;;;5006892;28;20049;-65
2023/05/29 00:58:21;;;;;;;0.10;0.10;;;11.50;99.90;;;;;;5001669;28;20049;-64
2023/05/29 01:00:47;;;;;;;0.10;0.10;;;11.50;99.90;;;;;;5003330;28;20046;-65
2023/05/29 01:03:14;;;;;;;0.00;0.00;;;11.50;99.90;;;;;;5006212;28;20068;-65
2023/05/29 01:05:41;;;;;;;0.10;0.10;;;11.40;99.90;;;;;;5011296;28;20041;-65
2023/05/29 01:08:07;;;;;;;0.75;0.40;;;11.40;99.90;;;;;;5009858;28;20058;-65
2023/05/29 01:10:34;;;;;;;0.40;0.40;;;11.40;99.90;;;;;;5005539;28;20580;-65
2023/05/29 01:13:19;;;;;;;0.10;0.10;;;11.40;99.90;;;;;;5006887;28;20049;-65
2023/05/29 01:16:03;;;;;;;0.50;0.45;;;11.40;99.90;;;;;;5000308;28;20042;-65
2023/05/29 01:18:37;;;;;;;;;;;11.40;99.90;;;;;;5003459;28;20420;-65
2023/05/29 01:21:35;;;;;;;0.10;0.10;;;11.30;99.90;;;;;;5007883;28;19925;-65
2023/05/29 01:24:23;;;;;;;0.00;0.00;;;11.30;99.90;;;;;;5011982;28;20054;-64
2023/05/29 01:27:10;;;;;;;0.00;0.00;;;11.30;99.90;;;;;;5004970;28;20038;-65
2023/05/29 01:29:38;;;;;;;0.00;0.00;;;11.40;99.90;;;;;;5012542;28;20107;-65
2023/05/29 01:32:05;;;;;;;1.65;1.40;;;11.40;99.90;;;;;;4999001;28;20038;-65
2023/05/29 01:34:31;;;;;;;0.00;0.00;;;11.40;99.90;;;;;;5005475;28;20061;-65
2023/05/29 01:36:56;;;;;;;0.10;0.10;;;11.40;99.90;;;;;;5006302;28;20046;-65
2023/05/29 01:39:23;;;;;;;0.00;0.00;;;11.40;99.90;;;;;;5004532;28;20092;-65
2023/05/29 01:41:51;;;;;;;0.10;0.10;;;11.50;99.90;;;;;;5001897;28;20049;-65
2023/05/29 01:44:17;;;;;;;0.57;0.57;;;11.40;99.90;;;;;;5005848;28;20125;-65
2023/05/29 01:46:45;;;;;;;0.15;0.15;;;11.50;99.90;;;;;;5004929;28;20116;-65
2023/05/29 01:49:11;;;;;;;0.30;0.30;;;11.40;99.90;;;;;;5000139;28;20049;-65
2023/05/29 01:51:40;;;;;;;0.43;0.43;;;11.30;99.90;;;;;;5001997;28;20132;-65
2023/05/29 01:54:07;;;;;;;0.30;0.30;;;11.40;99.90;;;;;;5006232;28;20553;-65
2023/05/29 01:56:33;;;;;;;0.20;0.20;;;11.40;99.90;;;;;;5004259;28;20046;-64
2023/05/29 01:59:01;;;;;;;0.45;0.45;;;11.50;99.90;;;;;;5006414;28;20064;-65
2023/05/29 02:01:27;;;;;;;0.17;0.17;;;11.50;99.90;;;;;;5010016;28;20058;-65
2023/05/29 02:03:52;;;;;;;8.13;2.08;;;11.40;99.90;;;;;;5006460;28;20045;-65
2023/05/29 02:06:18;;;;;;;1.38;0.80;;;11.40;99.90;;;;;;5000863;28;20084;-64
2023/05/29 02:08:44;;;;;;;0.08;0.08;;;11.40;99.90;;;;;;5004351;28;20045;-64
2023/05/29 02:11:10;;;;;;;0.10;0.10;;;11.50;99.90;;;;;;4999325;28;20070;-65
2023/05/29 02:13:35;;;;;;;0.00;0.00;;;11.40;99.90;;;;;;5009969;28;20045;-64
2023/05/29 02:16:01;;;;;;;0.10;0.10;;;11.40;99.90;;;;;;5005231;28;20046;-65
2023/05/29 02:18:26;;;;;;;0.75;0.75;;;11.40;99.90;;;;;;5006713;28;20136;-65
2023/05/29 02:20:52;;;;;;;0.00;0.00;;;11.40;99.90;;;;;;5009120;28;20531;-65
2023/05/29 02:23:19;;;;;;;0.10;0.10;;;11.30;99.90;;;;;;5001660;28;20053;-64
2023/05/29 02:25:45;;;;;;;0.08;0.08;;;11.30;99.90;;;;;;5006725;28;20568;-64
2023/05/29 02:28:11;;;;;;;0.47;0.47;;;11.40;99.90;;;;;;5037050;28;20056;-64
2023/05/29 02:30:37;;;;;;;0.00;0.00;;;11.50;99.90;;;;;;5016905;28;20053;-64
2023/05/29 02:33:02;;;;;;;0.10;0.10;;;11.50;99.90;;;;;;5000413;28;20066;-64
2023/05/29 02:35:28;;;;;;;0.35;0.35;;;11.60;99.90;;;;;;5002317;28;20556;-64
2023/05/29 02:37:53;;;;;;;0.10;0.10;;;11.60;99.90;;;;;;5009991;28;20045;-65
2023/05/29 02:40:20;;;;;;;0.10;0.10;;;11.60;99.90;;;;;;5009522;28;20049;-64
2023/05/29 02:42:46;;;;;;;0.55;0.55;;;11.70;99.90;;;;;;5035307;28;20176;-65
2023/05/29 02:45:12;;;;;;;0.00;0.00;;;11.70;99.90;;;;;;5006550;28;20053;-64
2023/05/29 02:47:38;;;;;;;0.10;0.10;;;11.70;99.90;;;;;;5004235;28;20135;-65
2023/05/29 02:50:04;;;;;;;0.10;0.10;;;11.80;99.90;;;;;;5004312;28;20042;-64
2023/05/29 02:52:31;;;;;;;0.10;0.10;;;11.80;99.90;;;;;;5003476;28;20034;-64
2023/05/29 02:54:58;;;;;;;0.57;0.57;;;11.80;99.90;;;;;;5004513;28;20048;-65
2023/05/29 02:57:24;;;;;;;0.63;0.63;;;11.80;99.90;;;;;;5003412;28;20133;-65
2023/05/29 02:59:51;;;;;;;0.10;0.10;;;11.70;99.90;;;;;;5007160;28;20129;-65
2023/05/29 03:02:17;;;;;;;1.88;1.05;;;11.70;99.90;;;;;;5009320;28;20042;-65
2023/05/29 03:04:42;;;;;;;3.33;1.20;;;11.80;99.90;;;;;;5021302;28;20042;-65
2023/05/29 03:07:09;;;;;;;0.47;0.47;;;11.80;99.90;;;;;;4998309;28;20050;-65
2023/05/29 03:09:35;;;;;;;0.00;0.00;;;11.80;99.90;;;;;;5007901;28;20478;-65
2023/05/29 03:12:04;;;;;;;4.38;0.65;;;11.90;99.90;;;;;;4996386;28;20037;-65
2023/05/29 03:14:30;;;;;;;0.00;0.00;;;11.80;99.90;;;;;;5005613;28;20084;-65
2023/05/29 03:16:56;;;;;;;0.00;0.00;;;11.80;99.90;;;;;;4997842;28;20092;-65
2023/05/29 03:19:21;;;;;;;0.10;0.10;;;11.80;99.90;;;;;;5007982;28;20497;-65
2023/05/29 03:21:47;;;;;;;0.10;0.10;;;11.90;99.90;;;;;;5023199;28;20042;-65
2023/05/29 03:24:15;;;;;;;0.20;0.20;;;11.90;99.90;;;;;;5002622;28;20038;-65
2023/05/29 03:26:41;;;;;;;0.00;0.00;;;11.90;99.90;;;;;;5001364;28;20575;-65
2023/05/29 03:29:07;;;;;;;0.43;0.43;;;11.90;99.90;;;;;;5006102;28;20054;-64
2023/05/29 03:31:32;;;;;;;0.00;0.00;;;11.80;99.90;;;;;;5040784;28;20201;-65
2023/05/29 03:33:59;;;;;;;0.52;0.52;;;11.90;99.90;;;;;;4997828;28;20508;-65
2023/05/29 03:36:24;;;;;;;0.10;0.10;;;11.90;99.90;;;;;;4997733;28;20046;-65
2023/05/29 03:38:50;;;;;;;0.20;0.20;;;11.90;99.90;;;;;;5000990;28;20042;-64
2023/05/29 03:41:16;;;;;;;0.00;0.00;;;11.90;99.90;;;;;;5008747;28;20041;-65
2023/05/29 03:43:41;;;;;;;3.17;1.23;;;11.90;99.90;;;;;;5006868;28;20038;-65
2023/05/29 03:46:07;;;;;;;0.38;0.38;;;11.90;99.90;;;;;;5012842;28;20172;-65
2023/05/29 03:48:32;;;;;;;0.08;0.08;;;11.90;99.90;;;;;;5009525;28;20060;-65
2023/05/29 03:50:58;;;;;;;2.00;1.23;;;12.00;99.90;;;;;;5003341;28;20068;-65
2023/05/29 03:53:24;;;;;;;1.30;1.10;;;12.00;99.90;;;;;;5011732;28;20042;-65
2023/05/29 03:55:49;;;;;;;0.08;0.08;;;12.00;99.90;;;;;;5002547;28;20088;-65
2023/05/29 03:58:15;;;;;;;0.50;0.50;;;12.00;99.90;;;;;;5006639;28;20046;-65
2023/05/29 04:00:41;;;;;;;0.20;0.20;;;12.00;99.90;;;;;;5016293;28;20038;-65
2023/05/29 04:03:07;;;;;;;1.27;0.70;;;12.00;99.90;;;;;;5002816;28;20060;-65
2023/05/29 04:05:32;;;;;;;0.25;0.25;;;11.90;99.90;;;;;;5007723;28;20113;-66
2023/05/29 04:07:58;;;;;;;0.28;0.25;;;12.00;99.90;;;;;;5005238;28;20035;-66
2023/05/29 04:10:24;;;;;;;1.27;1.02;;;12.00;99.90;;;;;;5005255;28;20078;-67
2023/05/29 04:12:50;;;;;;;8.27;2.80;;;12.00;99.90;;;;;;5008218;28;20050;-66
2023/05/29 04:15:16;;;;;;;0.03;0.03;;;12.00;99.90;;;;;;5001373;28;20046;-66
2023/05/29 04:17:41;;;;;;;0.10;0.10;;;12.00;99.90;;;;;;5011203;28;20060;-66
2023/05/29 04:20:08;;;;;;;0.40;0.40;;;12.10;99.90;;;;;;5010770;28;20057;-67
2023/05/29 04:22:37;;;;;;;0.00;0.00;;;12.10;99.90;;;;;;4998516;28;20054;-66
2023/05/29 04:25:04;;;;;;;2.75;1.45;;;12.10;99.90;;;;;;5010281;28;20057;-66
2023/05/29 04:27:32;;;;;;;0.00;0.00;;;12.10;99.90;;;;;;5008887;28;20046;-66
2023/05/29 04:29:58;;;;;;;0.03;0.03;;;12.10;99.90;;;;;;5003160;28;20516;-66
2023/05/29 04:32:24;;;;;;;0.00;0.00;;;12.10;99.90;;;;;;5005880;28;20049;-66
2023/05/29 04:34:51;;;;;;;0.00;0.00;;;12.10;99.90;;;;;;5009337;28;20034;-66
2023/05/29 04:37:17;;;;;;;0.20;0.20;;;12.00;99.90;;;;;;5000655;28;20060;-66
2023/05/29 04:39:43;;;;;;;0.08;0.08;;;12.10;99.90;;;;;;5006964;28;20137;-67
2023/05/29 04:42:09;;;;;;;0.10;0.10;;;12.10;99.90;;;;;;4997764;28;20065;-67
2023/05/29 04:44:34;;;;;;;0.10;0.10;;;12.00;99.90;;;;;;5008138;28;20378;-67
2023/05/29 04:47:03;;;;;;;0.20;0.20;;;12.10;99.90;;;;;;5005480;28;20054;-67
2023/05/29 04:49:29;;;;;;;0.75;0.68;;;12.10;99.90;;;;;;5005090;28;20073;-67
2023/05/29 04:51:54;;;;;;;0.10;0.10;;;12.10;99.90;;;;;;5002545;28;20449;-67
2023/05/29 04:54:23;;;;;;;0.82;0.82;;;12.10;99.90;;;;;;5004285;28;20117;-67
2023/05/29 04:56:48;;;;;;;3.13;1.05;;;12.20;99.90;;;;;;5006190;28;20096;-67
2023/05/29 04:59:14;;;;;;;0.10;0.10;;;12.20;99.90;;;;;;5004492;28;20045;-64
2023/05/29 05:01:43;;;;;;;0.90;0.85;;;12.10;99.90;;;;;;5008033;28;20046;-65
2023/05/29 05:04:09;;;;;;;0.10;0.10;;;12.20;99.90;;;;;;5002386;28;20068;-65
2023/05/29 05:06:34;;;;;;;1.20;0.80;;;12.10;99.90;;;;;;5005823;28;20494;-64
2023/05/29 05:09:00;;;;;;;0.00;0.00;;;12.10;99.90;;;;;;5004786;28;20042;-65
2023/05/29 05:11:26;;;;;;;0.70;0.47;;;12.10;99.90;;;;;;5004501;28;20049;-65
2023/05/29 05:13:52;;;;;;;0.10;0.10;;;12.10;99.90;;;;;;5005062;28;20052;-65
2023/05/29 05:16:18;;;;;;;0.10;0.10;;;12.10;99.90;;;;;;5010310;28;20104;-65
2023/05/29 05:18:44;;;;;;;1.30;1.20;;;12.10;99.90;;;;;;5010054;28;20046;-64
2023/05/29 05:21:10;;;;;;;0.20;0.10;;;12.10;99.90;;;;;;4997288;28;20378;-64
2023/05/29 05:23:36;;;;;;;1.25;0.63;;;12.20;99.90;;;;;;5014936;28;20076;-65
2023/05/29 05:26:01;;;;;;;0.70;0.65;;;12.20;99.90;;;;;;5002686;28;20030;-65
2023/05/29 05:28:27;;;;;;;5.68;1.75;;;12.10;99.90;;;;;;5004108;28;20056;-65
2023/05/29 05:30:52;;;;;;;0.08;0.08;;;12.20;99.90;;;;;;5005616;28;20469;-65
2023/05/29 05:33:18;;;;;;;2.70;0.82;;;12.20;99.90;;;;;;4998029;28;20156;-66
2023/05/29 05:35:43;;;;;;;0.00;0.00;;;12.20;99.90;;;;;;5004571;28;20046;-66
2023/05/29 05:38:09;;;;;;;0.52;0.52;;;12.20;99.90;;;;;;5004373;28;20464;-66
2023/05/29 05:40:35;;;;;;;0.00;0.00;;;12.30;99.90;;;;;;4999890;28;20038;-66
2023/05/29 05:43:00;;;;;;;0.10;0.10;;;12.30;99.90;;;;;;5003036;28;20061;-66
2023/05/29 05:45:26;;;;;;;0.10;0.10;;;12.30;99.90;;;;;;5004760;28;20494;-65
2023/05/29 05:47:51;;;;;;;0.00;0.00;;;12.30;99.90;;;;;;4998268;28;20509;-65
2023/05/29 05:50:17;;;;;;;0.75;0.63;;;12.40;99.90;;;;;;5003176;28;20046;-66
2023/05/29 05:52:43;;;;;;;0.08;0.08;;;12.40;99.90;;;;;;5008956;28;20046;-66
2023/05/29 05:55:08;;;;;;;0.03;0.03;;;12.40;99.90;;;;;;4998924;28;20042;-66
2023/05/29 05:57:35;;;;;;;0.30;0.30;;;12.50;99.90;;;;;;5003016;28;20153;-66
2023/05/29 06:00:04;;;;;;;0.00;0.00;;;12.50;99.90;;;;;;5010318;28;20089;-66
2023/05/29 06:02:30;;;;;;;0.10;0.10;;;12.50;99.90;;;;;;5000009;28;20596;-66
2023/05/29 06:04:55;;;;;;;0.08;0.08;;;12.60;99.90;;;;;;5002559;28;20043;-66
2023/05/29 06:07:21;;;;;;;0.05;0.05;;;12.70;99.90;;;;;;5011278;28;20545;-66
2023/05/29 06:09:47;;;;;;;0.00;0.00;;;12.70;99.90;;;;;;4997561;28;20073;-65
2023/05/29 06:12:12;;;;;;;1.00;1.00;;;12.70;99.90;;;;;;5001613;28;20042;-66
2023/05/29 06:14:38;;;;;;;0.73;0.68;;;12.80;99.90;;;;;;5006928;28;20037;-65
2023/05/29 06:17:04;;;;;;;4.15;2.05;;;12.80;99.90;;;;;;5000879;28;20042;-65
2023/05/29 06:19:29;;;;;;;0.47;0.47;;;12.80;99.90;;;;;;5000404;28;20080;-65
2023/05/29 06:21:55;;;;;;;0.15;0.15;;;12.90;99.90;;;;;;4994199;28;20072;-66
2023/05/29 06:24:21;;;;;;;0.20;0.20;;;12.90;99.90;;;;;;5002049;28;20060;-66
2023/05/29 06:26:46;;;;;;;1.55;0.57;;;12.80;99.90;;;;;;5006508;28;20038;-66
2023/05/29 06:29:12;;;;;;;0.30;0.30;;;12.90;99.90;;;;;;5002584;28;20064;-65
2023/05/29 06:31:37;;;;;;;0.63;0.63;;;13.00;99.90;;;;;;5000648;28;20074;-65
2023/05/29 06:34:03;;;;;;;0.00;0.00;;;13.00;99.90;;;;;;4998593;28;20061;-65
2023/05/29 06:36:28;;;;;;;0.17;0.17;;;13.10;99.90;;;;;;4995810;28;20076;-65
2023/05/29 06:38:54;;;;;;;3.60;1.30;;;13.10;99.90;;;;;;5007150;28;20406;-65
2023/05/29 06:41:20;;;;;;;0.63;0.63;;;13.20;99.90;;;;;;4997458;28;20057;-65
2023/05/29 06:43:46;;;;;;;0.80;0.43;;;13.30;99.90;;;;;;5002948;28;20048;-66
2023/05/29 06:46:11;;;;;;;0.15;0.15;;;13.30;99.90;;;;;;5007289;28;20042;-66
2023/05/29 06:48:37;;;;;;;0.20;0.20;;;13.40;99.90;;;;;;4998202;28;20046;-65
2023/05/29 06:51:09;;;;;;;0.10;0.10;;;13.40;99.90;;;;;;4998352;28;20116;-66
2023/05/29 06:53:36;;;;;;;0.25;0.25;;;13.30;99.90;;;;;;5007912;28;20046;-66
2023/05/29 06:56:01;;;;;;;0.68;0.35;;;13.40;99.90;;;;;;4999598;28;20390;-66
2023/05/29 06:58:27;;;;;;;0.10;0.10;;;13.40;99.90;;;;;;5000655;28;20050;-65
2023/05/29 07:00:53;;;;;;;0.20;0.20;;;13.50;99.90;;;;;;4999542;28;20050;-65
2023/05/29 07:03:18;;;;;;;0.82;0.82;;;13.60;99.90;;;;;;5005415;28;20042;-66
2023/05/29 07:05:44;;;;;;;0.13;0.13;;;13.70;99.90;;;;;;5006009;28;20123;-66
2023/05/29 07:08:09;;;;;;;0.10;0.10;;;13.70;99.90;;;;;;5001481;28;20497;-66
2023/05/29 07:10:35;;;;;;;0.52;0.52;;;13.80;99.90;;;;;;5038146;28;20065;-66
2023/05/29 07:13:00;;;;;;;2.05;1.25;;;13.80;99.90;;;;;;4998954;28;20129;-66
2023/05/29 07:15:26;;;;;;;0.10;0.10;;;13.80;99.90;;;;;;5010662;28;20042;-65
2023/05/29 07:17:52;;;;;;;0.43;0.43;;;13.90;99.90;;;;;;5006658;28;20046;-65
2023/05/29 07:20:19;;;;;;;0.90;0.90;;;13.80;99.90;;;;;;5008363;28;20037;-65
2023/05/29 07:22:45;;;;;;;0.10;0.10;;;13.90;99.90;;;;;;4999515;28;20129;-65
2023/05/29 07:25:11;;;;;;;0.10;0.10;;;13.80;99.90;;;;;;5007410;28;20120;-65
2023/05/29 07:27:37;;;;;;;0.00;0.00;;;13.80;99.90;;;;;;4994046;28;20501;-66
2023/05/29 07:30:03;;;;;;;0.08;0.08;;;13.80;99.90;;;;;;5002909;28;20052;-65
2023/05/29 07:32:28;;;;;;;0.00;0.00;;;13.90;99.90;;;;;;5008555;28;20048;-65
2023/05/29 07:34:55;;;;;;;0.65;0.65;;;13.90;99.90;;;;;;5006040;28;20064;-65
2023/05/29 07:37:21;;;;;;;0.00;0.00;;;13.80;99.90;;;;;;4999030;28;20038;-65
2023/05/29 07:39:46;;;;;;;0.03;0.03;;;13.90;99.90;;;;;;5004764;28;20116;-65
2023/05/29 07:42:12;;;;;;;0.20;0.20;;;13.90;99.90;;;;;;5002606;28;20528;-65
2023/05/29 07:44:38;;;;;;;0.08;0.08;;;13.90;99.90;;;;;;5005364;28;20409;-66
2023/05/29 07:47:03;;;;;;;0.90;0.52;;;13.90;99.90;;;;;;5003931;28;20132;-65
2023/05/29 07:49:30;;;;;;;0.17;0.17;;;14.00;99.90;;;;;;5002471;28;20069;-66
2023/05/29 07:51:55;;;;;;;1.30;1.20;;;14.10;99.90;;;;;;5004845;28;20494;-65
2023/05/29 07:54:22;;;;;;;0.00;0.00;;;14.10;99.90;;;;;;4999317;28;20041;-65
2023/05/29 07:56:47;;;;;;;24.30;2.70;;;14.10;99.90;;;;;;5004913;28;20041;-65
2023/05/29 07:59:13;;;;;;;0.10;0.10;;;14.00;99.90;;;;;;5002199;28;20065;-65
2023/05/29 08:01:39;;;;;;;1.55;1.08;;;14.10;99.90;;;;;;4993613;28;20038;-65
2023/05/29 08:04:05;;;;;;;1.77;1.63;;;14.20;99.90;;;;;;5034527;28;20049;-66
2023/05/29 08:06:32;;;;;;;0.00;0.00;;;14.30;99.90;;;;;;5005562;28;20038;-66
2023/05/29 08:08:58;;;;;;;0.65;0.55;;;14.30;99.90;;;;;;5036159;28;20058;-66
2023/05/29 08:11:24;;;;;;;9.95;1.75;;;14.40;99.90;;;;;;4997633;28;20548;-65
2023/05/29 08:13:49;;;;;;;0.57;0.57;;;14.30;99.90;;;;;;4999532;28;20656;-65
2023/05/29 08:16:16;;;;;;;0.85;0.52;;;14.40;99.90;;;;;;5003693;28;20124;-66
2023/05/29 08:18:42;;;;;;;1.85;0.77;;;14.50;99.90;;;;;;4993737;28;20042;-66
2023/05/29 08:21:09;;;;;;;0.10;0.10;;;14.60;99.90;;;;;;4997753;28;20045;-65
2023/05/29 08:23:35;;;;;;;0.38;0.38;;;14.50;99.90;;;;;;5002184;28;20046;-66
2023/05/29 08:26:02;;;;;;;0.15;0.13;;;14.50;99.90;;;;;;5004514;28;20705;-66
2023/05/29 08:28:28;;;;;;;2.42;1.35;;;14.60;99.90;;;;;;5006166;28;20065;-66
2023/05/29 08:30:54;;;;;;;0.75;0.75;;;14.60;99.90;;;;;;5006579;28;20049;-66
2023/05/29 08:33:19;;;;;;;0.10;0.10;;;14.60;99.90;;;;;;5002681;28;20046;-66
2023/05/29 08:35:45;;;;;;;0.00;0.00;;;14.60;99.90;;;;;;5007949;28;20047;-65
2023/05/29 08:38:11;;;;;;;0.80;0.80;;;14.70;99.90;;;;;;5004195;28;20132;-65
2023/05/29 08:40:37;;;;;;;0.93;0.47;;;14.80;99.90;;;;;;5008907;28;20050;-66
2023/05/29 08:43:19;;;;;;;0.00;0.00;;;14.90;99.90;;;;;;5009526;28;20038;-66
2023/05/29 08:45:47;;;;;;;0.73;0.73;;;14.90;99.90;;;;;;5002463;28;20042;-66
2023/05/29 08:48:14;;;;;;;0.57;0.55;;;15.00;99.90;;;;;;5005123;28;20816;-65
2023/05/29 08:50:46;;;;;;;1.15;1.02;;;15.00;99.90;;;;;;5010233;28;20121;-65
2023/05/29 08:53:14;;;;;;;0.10;0.10;;;15.00;99.90;;;;;;5004684;28;20516;-65
2023/05/29 08:55:39;;;;;;;1.30;0.40;;;15.10;99.90;;;;;;5000638;28;20109;-65
2023/05/29 08:58:06;;;;;;;0.15;0.15;;;15.10;99.90;;;;;;5030272;28;20129;-66
2023/05/29 09:00:32;;;;;;;0.00;0.00;;;15.10;99.90;;;;;;5005377;28;20409;-65
2023/05/29 09:02:59;;;;;;;4.38;1.10;;;15.00;99.90;;;;;;5000276;28;20389;-65
2023/05/29 09:05:27;;;;;;;0.10;0.10;;;14.90;99.90;;;;;;5004425;28;20046;-65
2023/05/29 09:07:56;;;;;;;0.00;0.00;;;14.80;99.90;;;;;;5004904;28;20050;-65
2023/05/29 09:10:22;;;;;;;0.10;0.10;;;14.80;99.90;;;;;;4994501;28;20042;-65
2023/05/29 09:12:50;;;;;;;3.00;1.30;;;14.70;99.90;;;;;;5007847;28;20063;-65
2023/05/29 09:15:23;;;;;;;0.80;0.80;;;14.80;99.90;;;;;;4992051;28;20450;-65
2023/05/29 09:17:58;;;;;;;1.85;1.10;;;14.80;99.90;;;;;;5000407;28;20053;-65
2023/05/29 09:20:25;;;;;;;0.55;0.38;;;14.80;99.90;;;;;;5002446;28;20061;-65
2023/05/29 09:23:02;;;;;;;0.00;0.00;;;14.80;99.90;;;;;;5005931;28;20053;-65
2023/05/29 09:25:38;;;;;;;6.22;1.17;;;14.70;99.90;;;;;;4996818;28;20034;-65
2023/05/29 09:28:07;;;;;;;0.08;0.08;;;14.70;99.90;;;;;;4998449;28;20055;-64
2023/05/29 09:30:35;;;;;;;0.30;0.30;;;14.70;99.90;;;;;;5008174;28;20046;-65
2023/05/29 09:33:02;;;;;;;0.00;0.00;;;14.80;99.90;;;;;;5011879;28;20404;-65
2023/05/29 09:35:41;;;;;;;2.63;1.75;;;14.80;99.90;;;;;;5003610;28;20053;-65
2023/05/29 09:38:18;;;;;;;1.17;1.10;;;14.80;99.90;;;;;;5011151;28;20410;-65
2023/05/29 09:40:47;;;;;;;0.47;0.47;;;14.90;99.90;;;;;;5001155;28;20041;-65
2023/05/29 09:43:19;;;;;;;0.47;0.47;;;15.00;99.90;;;;;;5009846;28;20058;-65
2023/05/29 09:45:47;;;;;;;1.45;0.75;;;15.10;99.90;;;;;;5010585;28;20072;-66
2023/05/29 09:48:33;;;;;;;0.00;0.00;;;15.20;99.90;;;;;;5008536;28;20077;-65
2023/05/29 09:51:02;;;;;;;4.72;2.03;;;15.30;99.90;;;;;;4998265;28;20061;-65
2023/05/29 09:53:28;;;;;;;0.00;0.00;;;15.30;99.90;;;;;;5002831;28;20050;-66
2023/05/29 09:55:59;;;;;;;0.00;0.00;;;15.50;99.90;;;;;;5006676;28;20389;-66
2023/05/29 09:58:25;;;;;;;0.30;0.30;;;15.50;99.90;;;;;;5010255;28;20505;-66
2023/05/29 10:00:52;;;;;;;0.00;0.00;;;15.40;99.90;;;;;;4998733;28;20438;-66
2023/05/29 10:03:19;;;;;;;0.05;0.05;;;15.50;99.90;;;;;;5007829;28;20042;-66
2023/05/29 10:05:50;;;;;;;0.20;0.20;;;15.40;99.90;;;;;;5011626;28;20042;-65
2023/05/29 10:08:18;;;;;;;1.30;0.88;;;15.60;99.90;;;;;;5001899;28;20050;-66
2023/05/29 10:10:47;;;;;;;0.10;0.10;;;15.70;99.90;;;;;;5010813;28;20041;-66
2023/05/29 10:13:14;;;;;;;0.10;0.10;;;15.80;99.90;;;;;;4998509;28;20560;-66
2023/05/29 10:15:50;;;;;;;0.70;0.70;;;16.00;99.90;;;;;;5003103;28;20057;-66
2023/05/29 10:18:36;;;;;;;23.27;0.80;;;15.90;99.90;;;;;;5010502;28;20054;-66
2023/05/29 10:21:02;;;;;;;1.20;0.80;;;16.20;99.90;;;;;;5000407;28;20078;-66
2023/05/29 10:23:30;;;;;;;0.75;0.75;;;16.60;99.90;;;;;;5009453;28;20050;-66
2023/05/29 10:26:15;;;;;;;0.05;0.05;;;16.60;99.90;;;;;;5001673;28;20455;-66
2023/05/29 10:28:57;;;;;;;16.67;0.60;;;16.80;99.90;;;;;;5000934;28;20093;-66
2023/05/29 10:31:37;;;;;;;0.15;0.15;;;16.90;99.90;;;;;;5009755;28;20093;-66
2023/05/29 10:34:18;;;;;;;1.83;1.08;;;16.90;99.90;;;;;;5000663;28;20066;-66
2023/05/29 10:36:56;;;;;;;0.10;0.10;;;16.90;99.90;;;;;;5003778;28;20064;-66
2023/05/29 10:39:22;;;;;;;0.00;0.00;;;16.90;99.90;;;;;;5004045;28;20437;-66
2023/05/29 10:41:47;;;;;;;0.00;0.00;;;17.10;99.90;;;;;;5004170;28;20037;-66
2023/05/29 10:44:31;;;;;;;0.73;0.45;;;17.20;99.90;;;;;;5039772;28;20049;-66
2023/05/29 10:47:00;;;;;;;0.57;0.57;;;17.30;99.90;;;;;;5029233;28;20054;-66
2023/05/29 10:49:26;;;;;;;2.90;1.48;;;17.30;99.90;;;;;;5006263;28;20057;-68
2023/05/29 10:51:52;;;;;;;0.75;0.75;;;17.20;99.90;;;;;;5007480;28;20775;-68
2023/05/29 10:54:26;;;;;;;4.57;0.85;;;17.50;99.90;;;;;;5008240;28;20073;-68
2023/05/29 10:56:57;;;;;;;0.08;0.08;;;17.70;99.90;;;;;;4999204;28;20034;-68
2023/05/29 10:59:27;;;;;;;0.00;0.00;;;17.80;99.90;;;;;;5000973;28;20038;-68
2023/05/29 11:01:53;;;;;;;0.35;0.35;;;17.90;99.90;;;;;;5004311;28;20030;-68
2023/05/29 11:04:25;;;;;;;0.20;0.20;;;18.00;99.90;;;;;;5013310;28;20054;-68
2023/05/29 11:06:51;;;;;;;0.35;0.28;;;18.00;99.90;;;;;;5004377;28;20485;-68
2023/05/29 11:09:37;;;;;;;0.65;0.65;;;17.90;99.90;;;;;;5008360;28;20133;-68
2023/05/29 11:12:11;;;;;;;0.52;0.52;;;18.10;99.90;;;;;;4999131;28;20049;-68
2023/05/29 11:14:47;;;;;;;2.05;1.02;;;18.00;99.90;;;;;;4995652;28;21295;-68
2023/05/29 11:17:38;;;;;;;0.00;0.00;;;17.90;99.90;;;;;;5003708;28;20056;-68
2023/05/29 11:20:06;;;;;;;0.00;0.00;;;17.80;99.90;;;;;;5003908;28;20048;-68
2023/05/29 11:22:59;;;;;;;0.00;0.00;;;17.90;99.90;;;;;;5006735;28;20113;-69
2023/05/29 11:25:25;;;;;;;0.00;0.00;;;17.80;99.90;;;;;;4995177;28;20052;-68
2023/05/29 11:27:52;;;;;;;0.08;0.08;;;18.10;99.90;;;;;;5003389;28;20081;-68
2023/05/29 11:30:18;;;;;;;1.95;1.20;;;18.10;99.90;;;;;;4997297;28;20393;-68
2023/05/29 11:32:46;;;;;;;1.83;1.58;;;18.20;99.90;;;;;;4999248;28;20034;-68
2023/05/29 11:35:13;;;;;;;1.27;1.20;;;18.50;99.90;;;;;;5002442;28;20038;-69
2023/05/29 11:37:40;;;;;;;0.00;0.00;;;18.70;99.90;;;;;;5002959;28;20121;-68
2023/05/29 11:40:10;;;;;;;0.32;0.30;;;19.00;99.90;;;;;;5001519;28;20443;-68
2023/05/29 11:42:44;;;;;;;0.10;0.10;;;19.10;99.90;;;;;;5000041;28;20046;-69
2023/05/29 11:45:15;;;;;;;2.75;1.40;;;19.10;99.90;;;;;;4999674;28;20120;-68
2023/05/29 11:48:03;;;;;;;0.00;0.00;;;19.20;99.90;;;;;;5005876;28;20050;-68
2023/05/29 11:50:31;;;;;;;0.00;0.00;;;19.30;99.90;;;;;;4997356;28;20053;-68
2023/05/29 11:52:58;;;;;;;0.00;0.00;;;19.20;99.90;;;;;;4998808;28;20125;-69
2023/05/29 11:55:24;;;;;;;0.25;0.25;;;19.20;99.90;;;;;;4999435;28;20133;-68
2023/05/29 11:57:55;;;;;;;0.00;0.00;;;18.90;99.90;;;;;;5002634;28;20050;-69
2023/05/29 12:00:21;;;;;;;0.65;0.65;;;19.10;99.90;;;;;;4998905;28;20048;-69
2023/05/29 12:02:48;;;;;;;0.00;0.00;;;19.30;99.90;;;;;;5009926;28;20117;-69
2023/05/29 12:05:16;;;;;;;0.00;0.00;;;19.20;99.90;;;;;;5004462;28;20140;-69
2023/05/29 12:07:50;;;;;;;0.00;0.00;;;19.20;99.90;;;;;;5002952;28;20069;-69
2023/05/29 12:10:17;;;;;;;1.00;0.98;;;19.30;99.90;;;;;;5003972;28;20184;-70
2023/05/29 12:12:48;;;;;;;0.20;0.20;;;19.20;99.90;;;;;;5008753;28;20034;-70
2023/05/29 12:15:14;;;;;;;0.00;0.00;;;18.90;99.90;;;;;;5002312;28;20049;-69
2023/05/29 12:17:40;;;;;;;0.20;0.20;;;18.90;99.90;;;;;;5035364;28;20393;-69
2023/05/29 12:20:08;;;;;;;0.22;0.22;;;18.80;99.90;;;;;;5004647;28;20601;-69
2023/05/29 12:22:37;;;;;;;0.00;0.00;;;18.70;99.90;;;;;;5011562;28;20124;-69
2023/05/29 12:25:16;;;;;;;1.23;1.13;;;18.70;99.90;;;;;;5004968;28;20046;-69
2023/05/29 12:27:46;;;;;;;0.28;0.28;;;18.90;99.90;;;;;;4999097;28;20573;-69
2023/05/29 12:30:17;;;;;;;0.40;0.40;;;19.00;99.90;;;;;;5007420;28;20703;-69
2023/05/29 12:32:45;;;;;;;0.25;0.25;;;19.00;99.90;;;;;;4998580;28;20129;-69
2023/05/29 12:35:17;;;;;;;0.35;0.35;;;19.00;99.90;;;;;;4999876;28;20493;-69
2023/05/29 12:37:49;;;;;;;0.00;0.00;;;19.20;99.90;;;;;;5000374;28;20144;-68
2023/05/29 12:40:34;;;;;;;0.70;0.70;;;19.20;99.90;;;;;;5011521;28;20041;-69
2023/05/29 12:43:02;;;;;;;6.20;2.25;;;19.00;99.90;;;;;;5005959;28;20038;-69
2023/05/29 12:45:30;;;;;;;0.05;0.05;;;18.70;99.90;;;;;;5006631;28;20102;-69
2023/05/29 12:47:58;;;;;;;1.02;0.70;;;18.30;99.90;;;;;;5004172;28;20057;-69
2023/05/29 12:50:26;;;;;;;3.10;0.63;;;18.30;99.90;;;;;;5024330;28;20507;-69
2023/05/29 12:53:03;;;;;;;0.00;0.00;;;18.20;99.90;;;;;;5011632;28;20151;-70